createdAt,value
2023-04-07T00:03:02.640Z,95.90
2023-04-07T00:07:15.065Z,95.40
2023-04-07T00:11:18.423Z,96.10
2023-04-07T00:15:21.646Z,95.90
2023-04-07T00:19:26.530Z,95.90
2023-04-07T00:23:34.147Z,96.00
2023-04-07T00:27:37.419Z,96.00
2023-04-07T00:31:40.972Z,95.70
2023-04-07T00:35:46.145Z,95.90
2023-04-07T00:39:51.463Z,95.20
2023-04-07T00:43:54.882Z,95.60
2023-04-07T00:47:59.179Z,95.90
2023-04-07T00:52:03.874Z,95.90
2023-04-07T00:56:08.593Z,95.90
2023-04-07T01:00:12.521Z,96.00
2023-04-07T01:04:24.001Z,96.00
2023-04-07T01:08:44.702Z,95.90
2023-04-07T01:12:57.230Z,96.00
2023-04-07T01:17:03.163Z,95.90
2023-04-07T01:21:10.086Z,95.90
2023-04-07T01:25:31.422Z,95.90
2023-04-07T01:29:41.401Z,96.20
2023-04-07T01:33:47.458Z,96.40
2023-04-07T01:37:52.300Z,96.20
2023-04-07T01:41:56.536Z,96.30
2023-04-07T01:46:05.187Z,96.40
2023-04-07T01:50:10.285Z,96.40
2023-04-07T01:54:16.002Z,96.50
2023-04-07T01:58:19.318Z,96.10
2023-04-07T02:02:24.237Z,96.60
2023-04-07T02:06:33.401Z,96.20
2023-04-07T02:10:40.414Z,95.90
2023-04-07T02:14:44.739Z,96.40
2023-04-07T02:18:51.343Z,96.30
2023-04-07T02:22:56.026Z,96.90
2023-04-07T02:27:02.312Z,96.60
2023-04-07T02:31:06.098Z,96.50
2023-04-07T02:35:11.582Z,96.50
2023-04-07T02:39:14.754Z,96.90
2023-04-07T02:43:22.823Z,96.80
2023-04-07T02:47:26.839Z,97.20
2023-04-07T02:51:37.872Z,97.10
2023-04-07T02:55:41.240Z,97.10
2023-04-07T02:59:44.933Z,97.20
2023-04-07T03:03:48.246Z,97.20
2023-04-07T03:07:52.994Z,97.50
2023-04-07T03:11:56.273Z,97.20
2023-04-07T03:16:00.667Z,97.20
2023-04-07T03:20:04.004Z,97.20
2023-04-07T03:24:09.792Z,97.50
2023-04-07T03:28:13.085Z,97.30
2023-04-07T03:32:16.511Z,97.30
2023-04-07T03:36:20.014Z,97.40
2023-04-07T03:40:24.660Z,97.60
2023-04-07T03:44:32.982Z,97.60
2023-04-07T03:48:36.236Z,97.30
2023-04-07T03:52:39.571Z,97.30
2023-04-07T03:56:44.303Z,97.50
2023-04-07T04:00:47.538Z,97.10
2023-04-07T04:04:57.020Z,97.20
2023-04-07T04:09:02.424Z,97.30
2023-04-07T04:13:08.085Z,97.10
2023-04-07T04:17:11.590Z,97.10
2023-04-07T04:21:14.805Z,97.30
2023-04-07T04:25:22.298Z,97.20
2023-04-07T04:29:27.223Z,96.60
2023-04-07T04:33:30.770Z,96.60
2023-04-07T04:37:34.051Z,96.50
2023-04-07T04:41:37.226Z,96.30
2023-04-07T04:45:41.913Z,96.40
2023-04-07T04:49:45.187Z,96.60
2023-04-07T04:53:51.821Z,96.40
2023-04-07T04:57:55.356Z,96.40
2023-04-07T05:02:00.294Z,96.80
2023-04-07T05:06:06.550Z,96.40
2023-04-07T05:10:16.276Z,96.40
2023-04-07T05:14:19.529Z,96.50
2023-04-07T05:18:26.554Z,96.50
2023-04-07T05:22:29.830Z,96.60
2023-04-07T05:26:39.326Z,95.60
2023-04-07T05:30:42.565Z,95.90
2023-04-07T05:34:48.284Z,95.60
2023-04-07T05:38:51.666Z,96.10
2023-04-07T05:42:54.951Z,95.90
2023-04-07T05:46:58.345Z,96.00
2023-04-07T05:51:02.929Z,95.90
2023-04-07T05:55:07.498Z,96.00
2023-04-07T05:59:10.737Z,96.10
2023-04-07T06:03:16.124Z,96.20
2023-04-07T06:07:20.933Z,95.80
2023-04-07T06:11:24.255Z,95.60
2023-04-07T06:15:29.626Z,95.20
2023-04-07T06:19:33.527Z,95.00
2023-04-07T06:23:40.435Z,94.70
2023-04-07T06:27:44.806Z,93.80
2023-04-07T06:31:50.006Z,93.20
2023-04-07T06:35:54.531Z,92.60
2023-04-07T06:40:04.928Z,91.60
2023-04-07T06:44:09.597Z,90.60
2023-04-07T06:48:13.801Z,89.40
2023-04-07T06:52:17.614Z,87.20
2023-04-07T06:56:23.689Z,86.60
2023-04-07T07:00:31.100Z,83.40
2023-04-07T07:04:35.610Z,81.10
2023-04-07T07:08:40.983Z,81.60
2023-04-07T07:12:46.309Z,78.90
2023-04-07T07:16:50.755Z,76.20
2023-04-07T07:20:53.981Z,77.20
2023-04-07T07:24:57.283Z,75.40
2023-04-07T07:29:02.030Z,72.60
2023-04-07T07:33:07.417Z,72.40
2023-04-07T07:37:12.406Z,72.10
2023-04-07T07:41:17.593Z,68.80
2023-04-07T07:45:22.729Z,65.40
2023-04-07T07:49:26.226Z,64.30
2023-04-07T07:53:32.684Z,63.00
2023-04-07T07:57:36.444Z,62.60
2023-04-07T08:01:41.287Z,63.30
2023-04-07T08:05:44.613Z,60.20
2023-04-07T08:09:47.976Z,59.70
2023-04-07T08:13:51.417Z,58.60
2023-04-07T08:17:56.506Z,57.00
2023-04-07T08:22:00.303Z,55.40
2023-04-07T08:26:03.788Z,57.10
2023-04-07T08:30:09.686Z,55.10
2023-04-07T08:34:14.339Z,55.00
2023-04-07T08:38:17.923Z,54.00
2023-04-07T08:42:22.127Z,52.60
2023-04-07T08:46:27.601Z,52.80
2023-04-07T08:50:33.845Z,51.70
2023-04-07T08:54:38.017Z,52.20
2023-04-07T08:58:42.787Z,52.50
2023-04-07T09:02:48.992Z,52.30
2023-04-07T09:06:53.874Z,51.80
2023-04-07T09:10:58.873Z,49.20
2023-04-07T09:15:02.388Z,50.50
2023-04-07T09:19:06.554Z,49.90
2023-04-07T09:23:31.194Z,50.20
2023-04-07T09:27:34.614Z,49.60
2023-04-07T09:31:52.136Z,47.90
2023-04-07T09:35:56.290Z,48.40
2023-04-07T09:40:02.335Z,49.90
2023-04-07T09:44:06.158Z,48.40
2023-04-07T09:48:11.001Z,47.30
2023-04-07T09:52:14.340Z,45.50
2023-04-07T09:56:20.163Z,45.70
2023-04-07T10:00:24.065Z,45.00
2023-04-07T10:04:29.300Z,47.20
2023-04-07T10:08:35.410Z,45.40
2023-04-07T10:12:41.571Z,44.10
2023-04-07T10:16:46.149Z,45.30
2023-04-07T10:20:52.004Z,45.10
2023-04-07T10:25:01.332Z,43.00
2023-04-07T10:29:11.743Z,43.50
2023-04-07T10:33:15.110Z,44.90
2023-04-07T10:37:21.412Z,44.10
2023-04-07T10:41:35.618Z,44.20
2023-04-07T10:46:01.833Z,43.10
2023-04-07T10:50:21.694Z,42.80
2023-04-07T10:54:28.693Z,42.10
2023-04-07T10:58:34.057Z,39.50
2023-04-07T11:02:40.980Z,42.10
2023-04-07T11:06:49.632Z,40.70
2023-04-07T11:10:53.147Z,40.50
2023-04-07T11:14:56.748Z,40.90
2023-04-07T11:19:02.761Z,41.70
2023-04-07T11:23:06.121Z,39.10
2023-04-07T11:27:14.096Z,38.80
2023-04-07T11:31:25.372Z,39.30
2023-04-07T11:35:30.144Z,38.00
2023-04-07T11:39:35.863Z,38.60
2023-04-07T11:43:42.177Z,37.90
2023-04-07T11:47:48.124Z,36.70
2023-04-07T11:52:01.720Z,39.40
2023-04-07T11:56:10.466Z,38.00
2023-04-07T12:00:16.054Z,37.40
2023-04-07T12:04:20.496Z,37.90
2023-04-07T12:08:38.990Z,38.10
2023-04-07T12:12:47.816Z,36.90
2023-04-07T12:16:51.384Z,36.70
2023-04-07T12:20:54.935Z,38.20
2023-04-07T12:24:59.493Z,36.30
2023-04-07T12:29:05.505Z,36.00
2023-04-07T12:33:10.396Z,32.00
2023-04-07T12:37:14.697Z,33.00
2023-04-07T12:41:26.432Z,34.20
2023-04-07T12:45:31.325Z,36.40
2023-04-07T12:49:34.578Z,33.80
2023-04-07T12:53:38.068Z,33.60
2023-04-07T12:57:42.678Z,32.50
2023-04-07T13:01:47.819Z,36.00
2023-04-07T13:05:55.114Z,35.30
2023-04-07T13:09:58.362Z,39.50
2023-04-07T13:14:03.768Z,40.60
2023-04-07T13:18:08.283Z,41.40
2023-04-07T13:22:11.714Z,41.10
2023-04-07T13:26:14.958Z,44.70
2023-04-07T13:30:22.240Z,45.90
2023-04-07T13:34:27.775Z,43.30
2023-04-07T13:38:31.112Z,43.20
2023-04-07T13:42:34.575Z,46.10
2023-04-07T13:46:39.304Z,43.80
2023-04-07T13:50:42.554Z,46.20
2023-04-07T13:54:46.813Z,47.50
2023-04-07T13:58:50.173Z,45.30
2023-04-07T14:02:56.319Z,44.20
2023-04-07T14:07:00.205Z,45.90
2023-04-07T14:11:10.685Z,45.20
2023-04-07T14:15:14.573Z,45.40
2023-04-07T14:19:21.427Z,43.30
2023-04-07T14:23:36.847Z,44.10
2023-04-07T14:27:41.033Z,43.50
2023-04-07T14:31:45.215Z,42.20
2023-04-07T14:35:50.090Z,43.30
2023-04-07T14:40:02.478Z,47.40
2023-04-07T14:44:06.981Z,49.80
2023-04-07T14:48:10.320Z,49.30
2023-04-07T14:52:15.685Z,47.70
2023-04-07T14:56:19.129Z,47.10
2023-04-07T15:00:22.540Z,49.40
2023-04-07T15:04:28.847Z,50.30
2023-04-07T15:08:36.152Z,50.70
2023-04-07T15:12:39.409Z,51.50
2023-04-07T15:16:44.138Z,53.40
2023-04-07T15:20:47.386Z,55.30
2023-04-07T15:24:52.227Z,54.10
2023-04-07T15:28:55.514Z,55.40
2023-04-07T15:33:00.591Z,57.70
2023-04-07T15:37:04.139Z,59.20
2023-04-07T15:41:09.041Z,61.20
2023-04-07T15:45:12.880Z,62.20
2023-04-07T15:49:20.165Z,62.40
2023-04-07T15:53:24.210Z,63.90
2023-04-07T15:57:28.893Z,64.10
2023-04-07T16:01:33.300Z,64.00
2023-04-07T16:05:37.592Z,64.00
2023-04-07T16:09:41.460Z,64.50
2023-04-07T16:13:46.563Z,65.70
2023-04-07T16:17:52.355Z,65.60
2023-04-07T16:21:56.515Z,66.70
2023-04-07T16:25:59.802Z,67.80
2023-04-07T16:30:05.262Z,67.80
2023-04-07T16:34:08.532Z,69.50
2023-04-07T16:38:12.000Z,68.90
2023-04-07T16:42:15.648Z,69.00
2023-04-07T16:46:20.865Z,69.40
2023-04-07T16:50:25.656Z,70.70
2023-04-07T16:54:29.049Z,71.30
2023-04-07T16:58:38.325Z,71.40
2023-04-07T17:02:43.344Z,72.60
2023-04-07T17:06:50.118Z,72.50
2023-04-07T17:10:55.333Z,72.50
2023-04-07T17:14:59.299Z,72.30
2023-04-07T17:19:05.118Z,74.20
2023-04-07T17:23:09.374Z,75.10
2023-04-07T17:27:12.746Z,76.10
2023-04-07T17:31:16.520Z,76.20
2023-04-07T17:35:21.676Z,77.00
2023-04-07T17:39:25.101Z,77.50
2023-04-07T17:43:28.679Z,77.30
2023-04-07T17:47:33.154Z,77.60
2023-04-07T17:51:39.355Z,77.60
2023-04-07T17:55:43.880Z,78.00
2023-04-07T17:59:49.988Z,79.10
2023-04-07T18:03:55.966Z,80.20
2023-04-07T18:08:03.980Z,80.70
2023-04-07T18:12:10.585Z,80.90
2023-04-07T18:16:22.327Z,82.00
2023-04-07T18:20:30.144Z,81.90
2023-04-07T18:24:35.864Z,81.80
2023-04-07T18:28:40.944Z,83.00
2023-04-07T18:32:45.368Z,82.90
2023-04-07T18:36:50.691Z,83.50
2023-04-07T18:40:55.650Z,83.50
2023-04-07T18:44:58.999Z,83.30
2023-04-07T18:49:02.878Z,84.40
2023-04-07T18:53:07.795Z,84.70
2023-04-07T18:57:17.062Z,84.20
2023-04-07T19:01:22.021Z,85.00
2023-04-07T19:05:34.511Z,84.20
2023-04-07T19:09:39.414Z,86.30
2023-04-07T19:13:45.532Z,86.40
2023-04-07T19:17:49.008Z,85.90
2023-04-07T19:21:53.671Z,87.20
2023-04-07T19:25:58.319Z,88.10
2023-04-07T19:30:05.679Z,88.20
2023-04-07T19:34:08.922Z,88.60
2023-04-07T19:38:13.845Z,89.60
2023-04-07T19:42:17.113Z,89.50
2023-04-07T19:46:21.926Z,90.40
2023-04-07T19:50:25.673Z,90.30
2023-04-07T19:54:29.131Z,90.30
2023-04-07T19:58:34.527Z,90.30
2023-04-07T20:02:39.518Z,90.20
2023-04-07T20:06:42.860Z,90.20
2023-04-07T20:10:46.111Z,90.80
2023-04-07T20:14:49.556Z,90.90
2023-04-07T20:18:55.260Z,90.80
2023-04-07T20:22:58.667Z,91.00
2023-04-07T20:27:01.922Z,91.20
2023-04-07T20:31:06.723Z,91.10
2023-04-07T20:35:12.761Z,91.30
2023-04-07T20:39:16.630Z,91.40
2023-04-07T20:43:22.117Z,91.80
2023-04-07T20:47:28.884Z,91.70
2023-04-07T20:51:35.062Z,92.10
2023-04-07T20:55:42.532Z,92.10
2023-04-07T20:59:45.919Z,92.20
2023-04-07T21:03:49.393Z,92.40
2023-04-07T21:07:54.094Z,92.20
2023-04-07T21:11:57.244Z,92.40
2023-04-07T21:16:01.470Z,92.50
2023-04-07T21:20:05.512Z,92.30
2023-04-07T21:24:12.207Z,92.70
2023-04-07T21:28:15.764Z,93.10
2023-04-07T21:32:20.733Z,93.30
2023-04-07T21:36:24.051Z,93.00
2023-04-07T21:40:29.060Z,93.00
2023-04-07T21:44:32.297Z,92.90
2023-04-07T21:48:35.879Z,93.50
2023-04-07T21:52:39.377Z,93.30
2023-04-07T21:56:46.774Z,93.40
2023-04-07T22:00:50.302Z,93.50
2023-04-07T22:04:54.717Z,93.30
2023-04-07T22:09:01.853Z,93.70
2023-04-07T22:13:06.859Z,93.30
2023-04-07T22:17:11.339Z,93.60
2023-04-07T22:21:14.649Z,94.00
2023-04-07T22:25:18.043Z,93.80
2023-04-07T22:29:23.062Z,94.20
2023-04-07T22:33:26.262Z,94.20
2023-04-07T22:37:29.697Z,94.20
2023-04-07T22:41:32.945Z,94.10
2023-04-07T22:45:37.779Z,94.10
2023-04-07T22:49:41.040Z,94.10
2023-04-07T22:53:44.419Z,94.10
2023-04-07T22:57:47.614Z,94.20
2023-04-07T23:01:52.932Z,94.20
2023-04-07T23:05:56.705Z,94.20
2023-04-07T23:10:00.576Z,94.60
2023-04-07T23:14:06.090Z,94.80
2023-04-07T23:18:11.304Z,94.60
2023-04-07T23:22:14.880Z,94.70
2023-04-07T23:26:18.525Z,94.80
2023-04-07T23:30:22.050Z,94.80
2023-04-07T23:34:27.140Z,94.70
2023-04-07T23:38:30.755Z,95.10
2023-04-07T23:42:35.323Z,95.20
2023-04-07T23:46:38.852Z,95.50
2023-04-07T23:50:44.002Z,95.30
2023-04-07T23:54:47.576Z,95.30
2023-04-07T23:58:51.210Z,95.70
